Asbury, Iowa
Current Conditions -  °F | °C
As of 2:53 AM on Wednesday 28 Jan 2015 (Local Time) from KDBQ Reporting Station
Haze Haze  
Wind Chill: 13°   Ceiling: 800
Heat Index: 25°   Visibility: 5mi
Dew Point: 22°   Wind: 14mph
Humidity: 88%   Direction: 170°S
Pressure: 30.17"   Gusts: NA
Location:  42.522°N, 90.7782°W
Report Text: KDBQ 280853Z AUTO 17012KT 5SM BR OVC008 M04/M06 A3017 RMK AO2 SLP233 T10391056 58012
Loading
Personal Weather Stations






























Interactive Weather Map New forecast layout! Learn more

10-Day Weather Forecast

Advertisements
Track Severe Weather on mobile